• Join FlightAware (Why Join?)
  • Login
  • US Flag 
12:19AM EDT


 

Airport Tracker/Info


-or-


 

Live Flight TrackerFlight Track Log ✈ NKS612 ✈ 27-Apr-2013 ✈ KLAS - KMSP

Flight Track Log - Related Links

Times and Time Zones

All times are in EDT time to prevent confusion due to time zone crossing. See the NKS612 flight status page for this flight to view local times or setup timezone preferences in your user account.

Time Position Orientation Groundspeed Altitude Reporting Facility
EDT Latitude Longitude Course Direction KTS MPH feet Rate Location/Type
03:22AM 36.0760 -115.1610 270° West 175 201 2,500  Level FlightAware
03:22AM 36.0770 -115.1910 272° West 178 205 3,600 1,380 Climbing FlightAware
03:23AM 36.0770 -115.2170 270° West 210 242 3,800 840 Climbing FlightAware
03:23AM 36.0790 -115.2570 274° West 251 289 4,400 1,440 Climbing FlightAware
03:23AM 36.0900 -115.2780 303° West 266 306 4,900 2,400 Climbing FlightAware
03:24AM 36.1000 -115.2860 327° Northwest 270 311 5,400 2,880 Climbing FlightAware
03:24AM 36.1160 -115.2920 343° North 271 312 6,100 2,880 Climbing FlightAware
03:24AM 36.1530 -115.2830 11° North 273 314 7,600 3,060 Climbing FlightAware
03:25AM 36.1670 -115.2660 44° Northeast 273 314 8,400 2,820 Climbing FlightAware
03:25AM 36.1820 -115.2320 61° Northeast 280 322 9,500 1,920 Climbing FlightAware
03:26AM 36.1970 -115.1550 76° East 327 376 10,700 1,620 Climbing FlightAware
03:26AM 36.1970 -115.0770 90° East 354 407 11,800 2,100 Climbing FlightAware
03:27AM 36.1980 -114.9960 89° East 359 413 13,500 2,220 Climbing FlightAware
03:28AM 36.1990 -114.9020 89° East 371 427 15,000 2,040 Climbing FlightAware
03:28AM 36.2000 -114.8140 89° East 382 440 16,400 2,160 Climbing FlightAware
03:29AM 36.2000 -114.7270 90° East 385 443 17,900 1,860 Climbing FlightAware
03:30AM 36.1990 -114.6280 91° East 399 459 19,100 1,680 Climbing FlightAware
03:31AM 36.1980 -114.5380 91° East 406 467 20,300 1,680 Climbing FlightAware
03:31AM 36.1960 -114.4280 91° East 415 478 21,500 1,560 Climbing FlightAware
03:32AM 36.2020 -114.3570 84° East 410 472 22,300 1,680 Climbing FlightAware
03:32AM 36.2430 -114.2820 56° Northeast 404 465 23,500 1,500 Climbing FlightAware
03:33AM 36.2970 -114.2020 50° Northeast 413 475 24,500 1,320 Climbing FlightAware
03:34AM 36.3450 -114.1290 51° Northeast 415 478 25,400 1,440 Climbing FlightAware
03:35AM 36.4010 -114.0440 51° Northeast 415 478 26,600 1,260 Climbing FlightAware
03:35AM 36.4480 -113.9730 51° Northeast 421 484 27,200 1,020 Climbing FlightAware
03:36AM 36.4990 -113.8940 51° Northeast 425 489 28,000 1,080 Climbing FlightAware
03:37AM 36.5540 -113.8100 51° Northeast 428 493 28,800 1,020 Climbing FlightAware
03:37AM 36.6030 -113.7340 51° Northeast 430 495 29,500 1,020 Climbing FlightAware
03:38AM 36.6550 -113.6550 51° Northeast 433 498 30,200 1,320 Climbing FlightAware
03:39AM 36.7110 -113.5690 51° Northeast 424 488 31,400 1,200 Climbing FlightAware
03:39AM 36.7530 -113.5040 51° Northeast 428 493 31,800 840 Climbing FlightAware
03:40AM 36.8150 -113.4080 51° Northeast 429 494 32,600 900 Climbing FlightAware
03:41AM 36.8650 -113.3300 51° Northeast 431 496 33,200 1,020 Climbing FlightAware
03:42AM 36.9150 -113.2520 51° Northeast 426 490 34,000 960 Climbing FlightAware
03:42AM 36.9710 -113.1640 51° Northeast 426 490 34,600 720 Climbing FlightAware
03:43AM 37.0210 -113.0860 51° Northeast 424 488 35,100 780 Climbing FlightAware
03:44AM 37.0700 -113.0100 51° Northeast 422 486 35,700 720 Climbing FlightAware
03:44AM 37.1220 -112.9270 52° Northeast 422 486 36,200 600 Climbing FlightAware
03:45AM 37.1700 -112.8520 51° Northeast 423 487 36,600 360 Climbing FlightAware
03:46AM 37.2180 -112.7770 51° Northeast 425 489 36,700 300 Climbing FlightAware
03:46AM 37.2680 -112.6960 52° Northeast 426 490 37,000 180 Climbing FlightAware
03:47AM 37.3250 -112.6060 51° Northeast 431 496 37,000  Level FlightAware
03:48AM 37.3690 -112.5370 51° Northeast 431 496 37,000  Level FlightAware
03:48AM 37.4120 -112.4710 51° Northeast 431 496 37,000  Level FlightAware
03:49AM 37.4550 -112.4050 51° Northeast 431 496 37,000  Level FlightAware
03:50AM 37.5080 -112.3220 51° Northeast 431 496 37,000  Level FlightAware
03:51AM 37.5510 -112.2550 51° Northeast 431 496 37,000  Level FlightAware
03:51AM 37.5930 -112.1890 51° Northeast 431 496 37,000  Level FlightAware
03:52AM 37.6360 -112.1220 51° Northeast 431 496 37,000  Level FlightAware
03:53AM 37.6890 -112.0390 51° Northeast 431 496 37,000  Level FlightAware
03:53AM 37.7320 -111.9730 51° Northeast 431 496 37,000  Level FlightAware
03:54AM 37.7750 -111.9060 51° Northeast 431 496 37,000  Level FlightAware
03:55AM 37.8170 -111.8390 52° Northeast 431 496 37,000  Level FlightAware
03:55AM 37.8600 -111.7720 51° Northeast 431 496 37,000  Level FlightAware
03:56AM 37.9130 -111.6890 51° Northeast 431 496 37,000  Level FlightAware
03:57AM 37.9560 -111.6220 51° Northeast 431 496 37,000  Level FlightAware
03:58AM 38.0764 -111.2331 51° Northeast 440 506 37,000  Level Salt Lake Center
03:59AM 38.1433 -111.1033 57° Northeast 441 507 37,000  Level Salt Lake Center
04:00AM 38.2097 -110.9722 57° Northeast 442 509 37,000  Level Salt Lake Center
04:01AM 38.2700 -110.8517 57° Northeast 440 506 37,000  Level Salt Lake Center
04:02AM 38.3336 -110.7258 57° Northeast 441 507 37,000  Level Salt Lake Center
04:03AM 38.4078 -110.5792 57° Northeast 442 509 37,000  Level Salt Lake Center
04:04AM 38.4703 -110.4547 57° Northeast 438 504 37,000  Level Salt Lake Center
04:05AM 38.5322 -110.3292 58° Northeast 437 503 37,000  Level Salt Lake Center
04:11AM 38.8880 -109.6050 58° Northeast 431 496 37,000  Level FlightAware
04:11AM 38.9300 -109.5200 58° Northeast 431 496 37,000  Level FlightAware
04:12AM 38.9720 -109.4320 58° Northeast 432 497 37,000  Level FlightAware
04:13AM 39.0080 -109.3580 58° Northeast 432 497 37,000  Level FlightAware
04:14AM 39.0530 -109.2650 58° Northeast 432 497 37,000  Level FlightAware
04:14AM 39.0890 -109.1910 58° Northeast 432 497 37,000  Level FlightAware
04:15AM 39.1250 -109.1170 58° Northeast 432 497 37,000  Level FlightAware
04:16AM 39.1610 -109.0420 58° Northeast 432 497 37,000  Level FlightAware
04:17AM 39.2590 -108.8330 59° Northeast 431 496 37,000  Level FlightAware
04:17AM 39.3080 -108.7310 58° Northeast 430 495 37,000  Level FlightAware
04:18AM 39.3490 -108.6440 59° Northeast 429 494 37,000  Level FlightAware
04:19AM 39.3900 -108.5560 59° Northeast 429 494 37,000  Level FlightAware
04:19AM 39.4370 -108.4560 59° Northeast 428 493 37,000  Level FlightAware
04:20AM 39.4770 -108.3700 59° Northeast 429 494 37,000  Level FlightAware
04:21AM 39.5240 -108.2700 59° Northeast 431 496 37,000  Level FlightAware
04:21AM 39.5650 -108.1830 59° Northeast 432 497 37,000  Level FlightAware
04:22AM 39.6120 -108.0820 59° Northeast 432 497 37,000  Level FlightAware
04:23AM 39.6520 -107.9950 59° Northeast 432 497 37,000  Level FlightAware
04:24AM 39.6940 -107.9050 59° Northeast 431 496 37,000  Level FlightAware
04:24AM 39.7380 -107.8080 59° Northeast 430 495 37,000  Level FlightAware
04:25AM 39.7770 -107.7230 59° Northeast 428 493 37,000  Level FlightAware
04:26AM 39.8190 -107.6330 59° Northeast 427 491 37,000  Level FlightAware
04:26AM 39.8384 -107.5890 60° Northeast 429 494 37,000  Level FlightAware ADS-B
04:26AM 39.8688 -107.5220 59° Northeast 429 494 37,000  Level FlightAware ADS-B
04:27AM 39.8991 -107.4560 59° Northeast 429 494 37,000  Level FlightAware ADS-B
04:27AM 39.9301 -107.3880 59° Northeast 430 495 37,000  Level FlightAware ADS-B
04:28AM 39.9625 -107.3160 60° Northeast 431 496 37,000  Level FlightAware ADS-B
04:29AM 40.0050 -107.2220 59° Northeast 431 496 37,000  Level FlightAware
04:29AM 40.0313 -107.1630 60° Northeast 431 496 37,000  Level FlightAware ADS-B
04:30AM 40.0704 -107.0770 59° Northeast 431 496 37,000  Level FlightAware ADS-B
04:30AM 40.1008 -107.0090 60° Northeast 430 495 37,000  Level FlightAware ADS-B
04:31AM 40.1392 -106.9230 60° Northeast 429 494 37,000  Level FlightAware ADS-B
04:31AM 40.1695 -106.8550 60° Northeast 429 494 37,000  Level FlightAware ADS-B
04:32AM 40.2056 -106.7740 60° Northeast 429 494 37,000  Level FlightAware ADS-B
04:33AM 40.2437 -106.6880 60° Northeast 431 496 37,000  Level FlightAware ADS-B
04:33AM 40.2832 -106.5990 60° Northeast 432 497 37,000  Level FlightAware ADS-B
04:34AM 40.3132 -106.5310 60° Northeast 431 496 37,000  Level FlightAware ADS-B
04:34AM 40.3400 -106.4700 60° Northeast 431 496 37,000  Level FlightAware
04:35AM 40.3680 -106.4060 60° Northeast 431 496 37,000  Level FlightAware ADS-B
04:36AM 40.4240 -106.2780 60° Northeast 430 495 37,000  Level FlightAware
04:36AM 40.4486 -106.2230 60° Northeast 431 496 37,000  Level FlightAware ADS-B
04:37AM 40.4800 -106.1510 60° Northeast 430 495 37,000  Level FlightAware ADS-B
04:37AM 40.5301 -106.0350 60° Northeast 430 495 37,000  Level FlightAware ADS-B
04:38AM 40.5602 -105.9660 60° Northeast 430 495 37,000  Level FlightAware ADS-B
04:39AM 40.6030 -105.8670 60° Northeast 428 493 37,000  Level FlightAware
04:39AM 40.6480 -105.7630 60° Northeast 428 493 37,000  Level FlightAware
04:40AM 40.6870 -105.6710 61° Northeast 428 493 37,000  Level FlightAware
04:41AM 40.7171 -105.6010 60° Northeast 428 493 37,000  Level FlightAware ADS-B
04:41AM 40.7468 -105.5310 61° Northeast 428 493 37,000  Level FlightAware ADS-B
04:42AM 40.7765 -105.4620 60° Northeast 428 493 37,000  Level FlightAware ADS-B
04:42AM 40.8070 -105.3900 61° Northeast 426 490 37,000  Level FlightAware
04:42AM 40.8257 -105.3460 61° Northeast 426 490 37,000  Level FlightAware ADS-B
04:43AM 40.8578 -105.2700 61° Northeast 426 490 37,000  Level FlightAware ADS-B
04:44AM 40.8868 -105.2010 61° Northeast 425 489 37,000  Level FlightAware ADS-B
04:44AM 40.9161 -105.1320 61° Northeast 424 488 37,000  Level FlightAware ADS-B
04:45AM 40.9448 -105.0640 61° Northeast 424 488 37,000  Level FlightAware ADS-B
04:45AM 40.9735 -104.9960 61° Northeast 424 488 37,000  Level FlightAware ADS-B
04:46AM 41.0058 -104.9190 61° Northeast 425 489 37,000  Level FlightAware ADS-B
04:46AM 41.0341 -104.8510 61° Northeast 425 489 37,000  Level FlightAware ADS-B
04:47AM 41.0626 -104.7820 61° Northeast 426 490 37,000  Level FlightAware ADS-B
04:47AM 41.0914 -104.7130 61° Northeast 426 490 37,000  Level FlightAware ADS-B
04:48AM 41.1201 -104.6440 61° Northeast 426 490 37,000  Level FlightAware ADS-B
04:48AM 41.1488 -104.5740 61° Northeast 424 488 37,000  Level FlightAware ADS-B
04:49AM 41.1772 -104.5060 61° Northeast 424 488 37,000  Level FlightAware ADS-B
04:49AM 41.2062 -104.4350 61° Northeast 422 486 37,000  Level FlightAware ADS-B
04:50AM 41.2344 -104.3660 61° Northeast 421 484 37,000  Level FlightAware ADS-B
04:50AM 41.2626 -104.2980 61° Northeast 421 484 37,000  Level FlightAware ADS-B
04:51AM 41.2906 -104.2290 62° Northeast 421 484 37,000  Level FlightAware ADS-B
04:51AM 41.3136 -104.1730 61° Northeast 421 484 37,000  Level FlightAware ADS-B
04:52AM 41.3415 -104.1050 61° Northeast 421 484 37,000  Level FlightAware ADS-B
04:52AM 41.3693 -104.0360 62° Northeast 421 484 37,000  Level FlightAware ADS-B
04:53AM 41.3976 -103.9660 62° Northeast 422 486 37,000  Level FlightAware ADS-B
04:53AM 41.4256 -103.8970 62° Northeast 424 488 37,000  Level FlightAware ADS-B
04:54AM 41.4537 -103.8270 62° Northeast 423 487 37,000  Level FlightAware ADS-B
04:54AM 41.4816 -103.7580 62° Northeast 423 487 37,000  Level FlightAware ADS-B
04:55AM 41.5092 -103.6890 62° Northeast 422 486 37,000  Level FlightAware ADS-B
04:55AM 41.5374 -103.6190 62° Northeast 421 484 37,000  Level FlightAware ADS-B
04:56AM 41.5650 -103.5500 62° Northeast 421 484 37,000  Level FlightAware ADS-B
04:56AM 41.5924 -103.4810 62° Northeast 423 487 37,000  Level FlightAware ADS-B
04:57AM 41.6204 -103.4110 62° Northeast 424 488 37,000  Level FlightAware ADS-B
04:57AM 41.6481 -103.3410 62° Northeast 425 489 37,000  Level FlightAware ADS-B
04:58AM 41.6758 -103.2710 62° Northeast 428 493 37,000  Level FlightAware ADS-B
04:58AM 41.7036 -103.2000 62° Northeast 429 494 37,000  Level FlightAware ADS-B
04:59AM 41.7312 -103.1300 62° Northeast 430 495 37,000  Level FlightAware ADS-B
04:59AM 41.7595 -103.0580 62° Northeast 432 497 37,000  Level FlightAware ADS-B
05:00AM 41.7876 -102.9870 62° Northeast 433 498 37,000  Level FlightAware ADS-B
05:00AM 41.8155 -102.9160 62° Northeast 432 497 37,000 60 Level FlightAware ADS-B
05:01AM 41.8435 -102.8440 62° Northeast 429 494 37,100  Climbing FlightAware ADS-B
05:01AM 41.8709 -102.7730 63° Northeast 427 491 37,000 -120 Descending FlightAware ADS-B
05:02AM 41.8983 -102.7020 63° Northeast 427 491 37,000  Level FlightAware ADS-B
05:02AM 41.9266 -102.6290 62° Northeast 427 491 37,000  Level FlightAware ADS-B
05:03AM 41.9539 -102.5580 63° Northeast 425 489 37,000  Level FlightAware ADS-B
05:03AM 41.9811 -102.4880 62° Northeast 423 487 37,000  Level FlightAware ADS-B
05:04AM 42.0086 -102.4170 62° Northeast 421 484 37,000  Level FlightAware ADS-B
05:04AM 42.0353 -102.3470 63° Northeast 419 482 37,000  Level FlightAware ADS-B
05:05AM 42.0620 -102.2770 63° Northeast 417 480 37,000  Level FlightAware ADS-B
05:05AM 42.0883 -102.2090 62° Northeast 416 479 37,000  Level FlightAware ADS-B
05:06AM 42.1149 -102.1390 63° Northeast 418 481 37,000  Level FlightAware ADS-B
05:06AM 42.1414 -102.0690 63° Northeast 419 482 37,000  Level FlightAware ADS-B
05:07AM 42.1680 -101.9990 63° Northeast 420 483 37,000  Level FlightAware ADS-B
05:07AM 42.1983 -101.9190 63° Northeast 420 483 37,000  Level FlightAware ADS-B
05:08AM 42.2248 -101.8480 63° Northeast 421 484 37,000  Level FlightAware ADS-B
05:08AM 42.2519 -101.7760 63° Northeast 423 487 37,000  Level FlightAware ADS-B
05:09AM 42.2789 -101.7040 63° Northeast 423 487 37,000  Level FlightAware ADS-B
05:10AM 42.3108 -101.6167 63° Northeast 422 486 37,000  Level Denver Center
05:11AM 42.3628 -101.4800 63° Northeast 425 489 37,000  Level Denver Center
05:12AM 42.4128 -101.3439 64° Northeast 423 487 37,000  Level Denver Center
05:13AM 42.4719 -101.1839 63° Northeast 424 488 37,000  Level Denver Center
05:14AM 42.5217 -101.0475 64° Northeast 422 486 37,000  Level Denver Center
05:15AM 42.5722 -100.9111 63° Northeast 422 486 37,000  Level Denver Center
05:16AM 42.6139 -100.7956 64° Northeast 424 488 37,000  Level Denver Center
05:17AM 42.6800 -100.6081 64° Northeast 429 494 37,000  Level Denver Center
05:18AM 42.7294 -100.4675 64° Northeast 429 494 37,000  Level Denver Center
05:19AM 42.7800 -100.3317 63° Northeast 422 486 37,000  Level Denver Center
05:20AM 42.8311 -100.1856 64° Northeast 426 490 37,000  Level Denver Center
05:21AM 42.8831 -100.0392 64° Northeast 429 494 37,000  Level Denver Center
05:21AM 42.9131 -99.9558 64° Northeast 424 488 37,000  Level Minneapolis Center
05:22AM 42.9650 -99.8086 64° Northeast 427 491 37,000  Level Minneapolis Center
05:23AM 43.0181 -99.6558 65° Northeast 432 497 37,000  Level Minneapolis Center
05:24AM 43.0703 -99.5072 64° Northeast 432 497 37,000  Level Minneapolis Center
05:25AM 43.1206 -99.3586 65° Northeast 431 496 37,000  Level Minneapolis Center
05:26AM 43.1703 -99.2169 64° Northeast 431 496 37,000  Level Minneapolis Center
05:27AM 43.2203 -99.0669 65° Northeast 433 498 37,000  Level Minneapolis Center
05:28AM 43.2722 -98.9161 65° Northeast 432 497 37,000  Level Minneapolis Center
05:29AM 43.3222 -98.7658 65° Northeast 433 498 37,000  Level Minneapolis Center
05:30AM 43.3683 -98.6136 67° East 434 499 37,000  Level Minneapolis Center
05:31AM 43.4164 -98.4628 66° East 432 497 37,000  Level Minneapolis Center
05:32AM 43.4639 -98.3094 67° East 436 502 37,000  Level Minneapolis Center
05:33AM 43.5122 -98.1569 66° East 436 502 37,000  Level Minneapolis Center
05:34AM 43.5594 -98.0036 67° East 436 502 37,000  Level Minneapolis Center
05:35AM 43.6064 -97.8492 67° East 439 505 37,000  Level Minneapolis Center
05:36AM 43.6542 -97.6950 67° East 438 504 37,000  Level Minneapolis Center
05:37AM 43.7014 -97.5392 67° East 440 506 37,000  Level Minneapolis Center
05:38AM 43.7478 -97.3836 68° East 440 506 37,000  Level Minneapolis Center
05:39AM 43.7947 -97.2278 67° East 440 506 37,000  Level Minneapolis Center
05:40AM 43.8408 -97.0733 67° East 437 503 37,000  Level Minneapolis Center
05:41AM 43.8864 -96.9183 68° East 436 502 37,000  Level Minneapolis Center
05:42AM 43.9317 -96.7650 68° East 433 498 37,000  Level Minneapolis Center
05:43AM 43.9769 -96.6100 68° East 435 501 37,000  Level Minneapolis Center
05:44AM 44.0219 -96.4544 68° East 437 503 37,000  Level Minneapolis Center
05:45AM 44.0672 -96.2997 68° East 437 503 37,000  Level Minneapolis Center
05:46AM 44.1111 -96.1469 68° East 439 505 37,000  Level Minneapolis Center
05:47AM 44.1553 -95.9939 68° East 440 506 37,000  Level Minneapolis Center
05:48AM 44.2086 -95.8067 68° East 439 505 37,000  Level Minneapolis Center
05:49AM 44.2522 -95.6494 69° East 438 504 37,000 -240 Level Minneapolis Center
05:50AM 44.2972 -95.4917 68° East 439 505 36,600 -1,200 Descending Minneapolis Center
05:51AM 44.3411 -95.3317 69° East 443 510 34,700 -2,160 Descending Minneapolis Center
05:52AM 44.3858 -95.1725 68° East 442 509 32,300 -2,880 Descending Minneapolis Center
05:53AM 44.4297 -95.0097 69° East 447 514 28,900 -3,240 Descending Minneapolis Center
05:54AM 44.4767 -94.8422 69° East 459 528 25,900 -2,940 Descending Minneapolis Center
05:55AM 44.5225 -94.6747 69° East 462 532 23,100 -2,700 Descending Minneapolis Center
05:56AM 44.5617 -94.5211 70° East 457 526 20,500 -2,700 Descending Minneapolis Center
05:57AM 44.6053 -94.3631 69° East 441 507 17,700 -2,100 Descending Minneapolis Center
05:58AM 44.6456 -94.2100 70° East 420 483 15,900 -1,320 Descending Minneapolis Center
06:04AM 44.8250 -93.4720 70° East 296 341 9,400 -1,320 Descending FlightAware
06:04AM 44.8320 -93.4120 81° East 289 333 8,200 -2,220 Descending FlightAware
06:05AM 44.8260 -93.3570 99° East 286 329 7,200 -2,100 Descending FlightAware
06:05AM 44.8090 -93.3160 120° Southeast 278 320 6,300 -1,980 Descending FlightAware
06:05AM 44.8000 -93.2930 119° Southeast 280 322 5,900 -720 Descending FlightAware
06:06AM 44.7820 -93.2480 119° Southeast 255 293 5,800 -120 Descending FlightAware
06:06AM 44.7680 -93.2120 119° Southeast 229 264 5,800 -120 Level FlightAware
06:07AM 44.7490 -93.1640 119° Southeast 223 257 5,700 -900 Descending FlightAware
06:08AM 44.7330 -93.1110 113° Southeast 202 232 4,600 -1,320 Descending FlightAware
06:08AM 44.7450 -93.0820 60° Northeast 201 231 4,100 -1,020 Descending FlightAware
06:09AM 44.7660 -93.0640 31° Northeast 196 226 3,700 -1,200 Descending FlightAware
06:09AM 44.7940 -93.0590 North 196 226 3,000 -900 Descending FlightAware
06:10AM 44.8170 -93.0720 338° Northwest 181 208 2,800 -600 Descending FlightAware
06:10AM 44.8260 -93.0920 302° West 166 191 2,500 -360 Descending FlightAware
06:11AM 44.8360 -93.1150 302° West 166 191 2,500 -900 Level FlightAware
06:11AM 44.8470 -93.1410 301° West 143 165 1,700 -1,200 Descending FlightAware
06:12AM 44.8580 -93.1650 303° West 139 160 1,300 -840 Descending FlightAware
06:12AM 44.8680 -93.1880 302° West 134 154 900 -780 Descending FlightAware
06:12AM 44.8750 -93.2060 299° West 137 158 600 -720 Descending FlightAware